sensor_id;sensor_type;location;lat;lon;timestamp;P1;durP1;ratioP1;P2;durP2;ratioP2
74291;SDS011;62687;55.738;37.516;2023-06-22T00:01:46;11.88;;;4.70;;
74291;SDS011;62687;55.738;37.516;2023-06-22T00:04:30;13.95;;;4.80;;
74291;SDS011;62687;55.738;37.516;2023-06-22T00:07:14;14.30;;;5.13;;
74291;SDS011;62687;55.738;37.516;2023-06-22T00:09:58;12.10;;;4.95;;
74291;SDS011;62687;55.738;37.516;2023-06-22T00:12:42;16.02;;;4.78;;
74291;SDS011;62687;55.738;37.516;2023-06-22T00:15:26;13.50;;;5.00;;
74291;SDS011;62687;55.738;37.516;2023-06-22T00:18:10;9.30;;;4.93;;
74291;SDS011;62687;55.738;37.516;2023-06-22T00:20:55;12.20;;;4.72;;
74291;SDS011;62687;55.738;37.516;2023-06-22T00:23:40;14.30;;;5.50;;
74291;SDS011;62687;55.738;37.516;2023-06-22T00:26:24;13.52;;;4.75;;
74291;SDS011;62687;55.738;37.516;2023-06-22T00:29:08;9.93;;;4.85;;
74291;SDS011;62687;55.738;37.516;2023-06-22T00:31:52;11.80;;;4.72;;
74291;SDS011;62687;55.738;37.516;2023-06-22T00:34:36;19.98;;;5.30;;
74291;SDS011;62687;55.738;37.516;2023-06-22T00:37:20;12.18;;;4.95;;
74291;SDS011;62687;55.738;37.516;2023-06-22T00:40:09;15.43;;;4.70;;
74291;SDS011;62687;55.738;37.516;2023-06-22T00:42:55;10.15;;;4.40;;
74291;SDS011;62687;55.738;37.516;2023-06-22T00:45:39;9.85;;;4.07;;
74291;SDS011;62687;55.738;37.516;2023-06-22T00:48:23;10.43;;;4.75;;
74291;SDS011;62687;55.738;37.516;2023-06-22T00:51:07;10.90;;;4.38;;
74291;SDS011;62687;55.738;37.516;2023-06-22T00:53:51;11.93;;;4.47;;
74291;SDS011;62687;55.738;37.516;2023-06-22T00:56:36;14.63;;;4.88;;
74291;SDS011;62687;55.738;37.516;2023-06-22T00:59:21;15.77;;;5.00;;
74291;SDS011;62687;55.738;37.516;2023-06-22T01:02:05;15.75;;;4.43;;
74291;SDS011;62687;55.738;37.516;2023-06-22T01:04:49;15.30;;;4.40;;
74291;SDS011;62687;55.738;37.516;2023-06-22T01:07:39;13.73;;;5.07;;
74291;SDS011;62687;55.738;37.516;2023-06-22T01:10:34;16.25;;;4.70;;
74291;SDS011;62687;55.738;37.516;2023-06-22T01:18:57;12.85;;;4.80;;
74291;SDS011;62687;55.738;37.516;2023-06-22T01:21:44;12.68;;;4.60;;
74291;SDS011;62687;55.738;37.516;2023-06-22T01:24:33;12.90;;;5.13;;
74291;SDS011;62687;55.738;37.516;2023-06-22T01:30:08;10.93;;;4.40;;
74291;SDS011;62687;55.738;37.516;2023-06-22T01:32:54;9.38;;;4.22;;
74291;SDS011;62687;55.738;37.516;2023-06-22T01:35:39;12.55;;;4.63;;
74291;SDS011;62687;55.738;37.516;2023-06-22T01:41:08;12.00;;;3.78;;
74291;SDS011;62687;55.738;37.516;2023-06-22T01:43:53;11.30;;;4.88;;
74291;SDS011;62687;55.738;37.516;2023-06-22T01:46:37;15.60;;;4.72;;
74291;SDS011;62687;55.738;37.516;2023-06-22T01:49:21;12.25;;;4.97;;
74291;SDS011;62687;55.738;37.516;2023-06-22T01:52:06;11.07;;;4.63;;
74291;SDS011;62687;55.738;37.516;2023-06-22T01:54:51;16.02;;;5.22;;
74291;SDS011;62687;55.738;37.516;2023-06-22T01:57:35;10.77;;;4.47;;
74291;SDS011;62687;55.738;37.516;2023-06-22T02:00:20;11.68;;;4.68;;
74291;SDS011;62687;55.738;37.516;2023-06-22T02:03:10;11.43;;;4.18;;
74291;SDS011;62687;55.738;37.516;2023-06-22T02:05:56;10.55;;;4.38;;
74291;SDS011;62687;55.738;37.516;2023-06-22T02:08:46;7.57;;;3.85;;
74291;SDS011;62687;55.738;37.516;2023-06-22T02:11:31;15.07;;;4.45;;
74291;SDS011;62687;55.738;37.516;2023-06-22T02:14:15;13.48;;;4.68;;
74291;SDS011;62687;55.738;37.516;2023-06-22T02:17:00;11.88;;;4.22;;
74291;SDS011;62687;55.738;37.516;2023-06-22T02:19:44;12.43;;;5.15;;
74291;SDS011;62687;55.738;37.516;2023-06-22T02:22:28;13.48;;;4.57;;
74291;SDS011;62687;55.738;37.516;2023-06-22T02:25:12;18.05;;;5.20;;
74291;SDS011;62687;55.738;37.516;2023-06-22T02:27:56;15.90;;;5.05;;
74291;SDS011;62687;55.738;37.516;2023-06-22T02:30:40;16.00;;;5.15;;
74291;SDS011;62687;55.738;37.516;2023-06-22T02:33:24;17.98;;;5.88;;
74291;SDS011;62687;55.738;37.516;2023-06-22T02:36:08;15.93;;;5.97;;
74291;SDS011;62687;55.738;37.516;2023-06-22T02:38:53;12.68;;;5.05;;
74291;SDS011;62687;55.738;37.516;2023-06-22T02:41:37;13.15;;;4.95;;
74291;SDS011;62687;55.738;37.516;2023-06-22T02:44:21;13.60;;;5.30;;
74291;SDS011;62687;55.738;37.516;2023-06-22T02:47:05;10.90;;;5.00;;
74291;SDS011;62687;55.738;37.516;2023-06-22T02:49:49;13.68;;;5.10;;
74291;SDS011;62687;55.738;37.516;2023-06-22T02:52:34;14.32;;;5.70;;
74291;SDS011;62687;55.738;37.516;2023-06-22T02:55:18;14.02;;;5.63;;
74291;SDS011;62687;55.738;37.516;2023-06-22T02:58:02;14.75;;;5.38;;
74291;SDS011;62687;55.738;37.516;2023-06-22T03:00:48;13.10;;;5.40;;
74291;SDS011;62687;55.738;37.516;2023-06-22T03:03:36;15.25;;;6.00;;
74291;SDS011;62687;55.738;37.516;2023-06-22T03:06:21;12.60;;;5.53;;
74291;SDS011;62687;55.738;37.516;2023-06-22T03:09:07;12.13;;;5.97;;
74291;SDS011;62687;55.738;37.516;2023-06-22T03:11:51;8.95;;;5.50;;
74291;SDS011;62687;55.738;37.516;2023-06-22T03:14:34;12.50;;;5.65;;
74291;SDS011;62687;55.738;37.516;2023-06-22T03:17:19;14.57;;;5.30;;
74291;SDS011;62687;55.738;37.516;2023-06-22T03:20:03;15.52;;;5.47;;
74291;SDS011;62687;55.738;37.516;2023-06-22T03:22:54;10.45;;;5.10;;
74291;SDS011;62687;55.738;37.516;2023-06-22T03:25:38;9.68;;;5.38;;
74291;SDS011;62687;55.738;37.516;2023-06-22T03:28:21;13.80;;;5.78;;
74291;SDS011;62687;55.738;37.516;2023-06-22T03:31:06;12.82;;;5.25;;
74291;SDS011;62687;55.738;37.516;2023-06-22T03:33:50;13.05;;;5.05;;
74291;SDS011;62687;55.738;37.516;2023-06-22T03:36:34;11.88;;;5.70;;
74291;SDS011;62687;55.738;37.516;2023-06-22T03:39:18;10.43;;;5.13;;
74291;SDS011;62687;55.738;37.516;2023-06-22T03:42:02;10.20;;;4.78;;
74291;SDS011;62687;55.738;37.516;2023-06-22T03:44:46;11.52;;;4.40;;
74291;SDS011;62687;55.738;37.516;2023-06-22T03:47:30;8.07;;;4.60;;
74291;SDS011;62687;55.738;37.516;2023-06-22T03:50:14;11.30;;;4.35;;
74291;SDS011;62687;55.738;37.516;2023-06-22T03:52:58;13.18;;;4.60;;
74291;SDS011;62687;55.738;37.516;2023-06-22T03:55:49;10.25;;;4.38;;
74291;SDS011;62687;55.738;37.516;2023-06-22T03:58:37;14.57;;;4.80;;
74291;SDS011;62687;55.738;37.516;2023-06-22T04:01:26;10.52;;;4.35;;
74291;SDS011;62687;55.738;37.516;2023-06-22T04:04:10;9.85;;;4.28;;
74291;SDS011;62687;55.738;37.516;2023-06-22T04:06:54;9.57;;;3.92;;
74291;SDS011;62687;55.738;37.516;2023-06-22T04:09:38;9.48;;;4.05;;
74291;SDS011;62687;55.738;37.516;2023-06-22T04:12:22;7.00;;;4.20;;
74291;SDS011;62687;55.738;37.516;2023-06-22T04:15:06;6.15;;;3.75;;
74291;SDS011;62687;55.738;37.516;2023-06-22T04:17:50;10.32;;;4.15;;
74291;SDS011;62687;55.738;37.516;2023-06-22T04:20:34;6.18;;;4.10;;
74291;SDS011;62687;55.738;37.516;2023-06-22T04:23:18;11.63;;;3.60;;
74291;SDS011;62687;55.738;37.516;2023-06-22T04:26:02;9.10;;;4.28;;
74291;SDS011;62687;55.738;37.516;2023-06-22T04:28:46;13.13;;;4.60;;
74291;SDS011;62687;55.738;37.516;2023-06-22T04:31:35;21.15;;;5.15;;
74291;SDS011;62687;55.738;37.516;2023-06-22T04:34:21;13.75;;;4.22;;
74291;SDS011;62687;55.738;37.516;2023-06-22T04:37:05;8.88;;;3.03;;
74291;SDS011;62687;55.738;37.516;2023-06-22T04:39:49;12.05;;;4.35;;
74291;SDS011;62687;55.738;37.516;2023-06-22T04:42:34;9.05;;;4.45;;
74291;SDS011;62687;55.738;37.516;2023-06-22T04:45:19;8.77;;;3.75;;
74291;SDS011;62687;55.738;37.516;2023-06-22T04:48:04;10.40;;;4.00;;
74291;SDS011;62687;55.738;37.516;2023-06-22T04:50:48;8.03;;;3.40;;
74291;SDS011;62687;55.738;37.516;2023-06-22T04:53:32;9.15;;;3.58;;
74291;SDS011;62687;55.738;37.516;2023-06-22T04:56:16;9.27;;;3.53;;
74291;SDS011;62687;55.738;37.516;2023-06-22T04:59:01;8.43;;;3.38;;
74291;SDS011;62687;55.738;37.516;2023-06-22T05:01:47;9.57;;;3.75;;
74291;SDS011;62687;55.738;37.516;2023-06-22T05:04:31;10.35;;;4.05;;
74291;SDS011;62687;55.738;37.516;2023-06-22T05:07:15;9.65;;;3.40;;
74291;SDS011;62687;55.738;37.516;2023-06-22T05:10:00;10.60;;;3.30;;
74291;SDS011;62687;55.738;37.516;2023-06-22T05:12:45;4.30;;;2.70;;
74291;SDS011;62687;55.738;37.516;2023-06-22T05:15:29;11.10;;;3.47;;
74291;SDS011;62687;55.738;37.516;2023-06-22T05:18:16;6.30;;;3.03;;
74291;SDS011;62687;55.738;37.516;2023-06-22T05:21:00;5.43;;;2.70;;
74291;SDS011;62687;55.738;37.516;2023-06-22T05:23:44;4.47;;;2.45;;
74291;SDS011;62687;55.738;37.516;2023-06-22T05:26:29;5.40;;;2.40;;
74291;SDS011;62687;55.738;37.516;2023-06-22T05:29:14;5.22;;;2.80;;
74291;SDS011;62687;55.738;37.516;2023-06-22T05:31:58;7.43;;;2.85;;
74291;SDS011;62687;55.738;37.516;2023-06-22T05:34:42;5.95;;;2.95;;
74291;SDS011;62687;55.738;37.516;2023-06-22T05:37:25;8.63;;;3.30;;
74291;SDS011;62687;55.738;37.516;2023-06-22T05:40:10;6.93;;;2.70;;
74291;SDS011;62687;55.738;37.516;2023-06-22T05:42:54;12.98;;;3.70;;
74291;SDS011;62687;55.738;37.516;2023-06-22T05:45:38;6.97;;;2.55;;
74291;SDS011;62687;55.738;37.516;2023-06-22T05:48:22;7.82;;;2.92;;
74291;SDS011;62687;55.738;37.516;2023-06-22T05:51:06;5.97;;;2.78;;
74291;SDS011;62687;55.738;37.516;2023-06-22T05:53:50;8.07;;;3.10;;
74291;SDS011;62687;55.738;37.516;2023-06-22T05:56:34;8.20;;;2.97;;
74291;SDS011;62687;55.738;37.516;2023-06-22T05:59:19;5.63;;;2.67;;
74291;SDS011;62687;55.738;37.516;2023-06-22T06:04:47;5.85;;;2.65;;
74291;SDS011;62687;55.738;37.516;2023-06-22T06:07:31;4.28;;;2.55;;
74291;SDS011;62687;55.738;37.516;2023-06-22T06:10:17;4.75;;;2.92;;
74291;SDS011;62687;55.738;37.516;2023-06-22T06:13:01;8.55;;;3.33;;
74291;SDS011;62687;55.738;37.516;2023-06-22T06:15:47;5.35;;;2.97;;
74291;SDS011;62687;55.738;37.516;2023-06-22T06:18:31;5.38;;;3.33;;
74291;SDS011;62687;55.738;37.516;2023-06-22T06:21:16;5.32;;;3.22;;
74291;SDS011;62687;55.738;37.516;2023-06-22T06:24:00;7.53;;;3.35;;
74291;SDS011;62687;55.738;37.516;2023-06-22T06:26:44;7.25;;;3.28;;
74291;SDS011;62687;55.738;37.516;2023-06-22T06:29:28;5.82;;;2.90;;
74291;SDS011;62687;55.738;37.516;2023-06-22T06:32:12;7.82;;;3.65;;
74291;SDS011;62687;55.738;37.516;2023-06-22T06:34:56;7.95;;;3.70;;
74291;SDS011;62687;55.738;37.516;2023-06-22T06:37:40;10.55;;;3.40;;
74291;SDS011;62687;55.738;37.516;2023-06-22T06:40:25;8.65;;;3.67;;
74291;SDS011;62687;55.738;37.516;2023-06-22T06:43:09;9.65;;;3.80;;
74291;SDS011;62687;55.738;37.516;2023-06-22T06:45:53;8.27;;;3.40;;
74291;SDS011;62687;55.738;37.516;2023-06-22T06:48:37;9.18;;;3.50;;
74291;SDS011;62687;55.738;37.516;2023-06-22T06:51:20;4.63;;;3.28;;
74291;SDS011;62687;55.738;37.516;2023-06-22T06:54:04;4.68;;;3.08;;
74291;SDS011;62687;55.738;37.516;2023-06-22T06:56:48;6.55;;;3.55;;
74291;SDS011;62687;55.738;37.516;2023-06-22T06:59:33;8.88;;;3.40;;
74291;SDS011;62687;55.738;37.516;2023-06-22T07:02:17;7.90;;;3.42;;
74291;SDS011;62687;55.738;37.516;2023-06-22T07:05:01;6.85;;;3.65;;
74291;SDS011;62687;55.738;37.516;2023-06-22T07:07:47;9.20;;;3.47;;
74291;SDS011;62687;55.738;37.516;2023-06-22T07:10:33;7.95;;;3.03;;
74291;SDS011;62687;55.738;37.516;2023-06-22T07:13:17;5.57;;;3.00;;
74291;SDS011;62687;55.738;37.516;2023-06-22T07:16:01;4.88;;;3.20;;
74291;SDS011;62687;55.738;37.516;2023-06-22T07:18:45;10.35;;;3.58;;
74291;SDS011;62687;55.738;37.516;2023-06-22T07:21:28;9.43;;;3.15;;
74291;SDS011;62687;55.738;37.516;2023-06-22T07:24:12;6.60;;;2.70;;
74291;SDS011;62687;55.738;37.516;2023-06-22T07:26:56;6.35;;;2.65;;
74291;SDS011;62687;55.738;37.516;2023-06-22T07:29:41;14.23;;;3.67;;
74291;SDS011;62687;55.738;37.516;2023-06-22T07:32:26;7.00;;;3.03;;
74291;SDS011;62687;55.738;37.516;2023-06-22T07:35:12;9.15;;;3.47;;
74291;SDS011;62687;55.738;37.516;2023-06-22T07:37:56;12.52;;;4.38;;
74291;SDS011;62687;55.738;37.516;2023-06-22T07:40:40;9.50;;;3.30;;
74291;SDS011;62687;55.738;37.516;2023-06-22T07:43:25;8.95;;;3.75;;
74291;SDS011;62687;55.738;37.516;2023-06-22T07:46:09;11.57;;;3.78;;
74291;SDS011;62687;55.738;37.516;2023-06-22T07:48:53;5.75;;;3.10;;
74291;SDS011;62687;55.738;37.516;2023-06-22T07:51:37;9.77;;;3.65;;
74291;SDS011;62687;55.738;37.516;2023-06-22T07:54:21;11.52;;;3.58;;
74291;SDS011;62687;55.738;37.516;2023-06-22T07:57:05;8.45;;;3.70;;
74291;SDS011;62687;55.738;37.516;2023-06-22T08:02:18;5.45;;;3.10;;
74291;SDS011;62687;55.738;37.516;2023-06-22T08:05:03;5.82;;;3.00;;
74291;SDS011;62687;55.738;37.516;2023-06-22T08:07:48;4.65;;;2.92;;
74291;SDS011;62687;55.738;37.516;2023-06-22T08:10:32;8.40;;;3.80;;
74291;SDS011;62687;55.738;37.516;2023-06-22T08:13:16;5.85;;;2.97;;
74291;SDS011;62687;55.738;37.516;2023-06-22T08:16:00;8.93;;;3.20;;
74291;SDS011;62687;55.738;37.516;2023-06-22T08:18:44;4.28;;;3.13;;
74291;SDS011;62687;55.738;37.516;2023-06-22T08:21:28;11.35;;;3.30;;
74291;SDS011;62687;55.738;37.516;2023-06-22T08:24:12;6.93;;;3.30;;
74291;SDS011;62687;55.738;37.516;2023-06-22T08:26:56;5.82;;;3.22;;
74291;SDS011;62687;55.738;37.516;2023-06-22T08:29:40;6.57;;;3.10;;
74291;SDS011;62687;55.738;37.516;2023-06-22T08:32:29;10.95;;;3.30;;
74291;SDS011;62687;55.738;37.516;2023-06-22T08:37:57;6.05;;;3.38;;
74291;SDS011;62687;55.738;37.516;2023-06-22T08:40:43;9.48;;;3.70;;
74291;SDS011;62687;55.738;37.516;2023-06-22T08:43:27;6.05;;;2.90;;
74291;SDS011;62687;55.738;37.516;2023-06-22T08:46:11;8.27;;;3.80;;
74291;SDS011;62687;55.738;37.516;2023-06-22T08:48:56;11.05;;;3.13;;
74291;SDS011;62687;55.738;37.516;2023-06-22T08:51:41;7.78;;;3.75;;
74291;SDS011;62687;55.738;37.516;2023-06-22T08:54:25;9.98;;;3.17;;
74291;SDS011;62687;55.738;37.516;2023-06-22T08:57:09;4.30;;;2.85;;
74291;SDS011;62687;55.738;37.516;2023-06-22T09:02:42;7.15;;;3.40;;
74291;SDS011;62687;55.738;37.516;2023-06-22T09:05:25;7.30;;;3.10;;
74291;SDS011;62687;55.738;37.516;2023-06-22T09:08:12;4.78;;;3.13;;
74291;SDS011;62687;55.738;37.516;2023-06-22T09:10:56;4.80;;;2.80;;
74291;SDS011;62687;55.738;37.516;2023-06-22T09:13:40;7.43;;;3.42;;
74291;SDS011;62687;55.738;37.516;2023-06-22T09:16:24;6.35;;;3.47;;
74291;SDS011;62687;55.738;37.516;2023-06-22T09:19:08;6.32;;;3.28;;
74291;SDS011;62687;55.738;37.516;2023-06-22T09:21:52;6.72;;;2.70;;
74291;SDS011;62687;55.738;37.516;2023-06-22T09:24:36;8.25;;;3.70;;
74291;SDS011;62687;55.738;37.516;2023-06-22T09:30:05;7.75;;;3.30;;
74291;SDS011;62687;55.738;37.516;2023-06-22T09:35:33;5.43;;;3.58;;
74291;SDS011;62687;55.738;37.516;2023-06-22T09:41:01;7.95;;;3.28;;
74291;SDS011;62687;55.738;37.516;2023-06-22T09:43:45;8.45;;;3.65;;
74291;SDS011;62687;55.738;37.516;2023-06-22T09:46:29;7.28;;;3.55;;
74291;SDS011;62687;55.738;37.516;2023-06-22T09:49:13;5.50;;;3.40;;
74291;SDS011;62687;55.738;37.516;2023-06-22T09:51:57;4.35;;;3.30;;
74291;SDS011;62687;55.738;37.516;2023-06-22T09:54:41;5.28;;;3.60;;
74291;SDS011;62687;55.738;37.516;2023-06-22T09:57:25;7.53;;;3.20;;
74291;SDS011;62687;55.738;37.516;2023-06-22T10:00:09;6.45;;;2.80;;
74291;SDS011;62687;55.738;37.516;2023-06-22T10:02:56;6.78;;;3.33;;
74291;SDS011;62687;55.738;37.516;2023-06-22T10:08:25;7.85;;;3.17;;
74291;SDS011;62687;55.738;37.516;2023-06-22T10:11:09;6.53;;;3.40;;
74291;SDS011;62687;55.738;37.516;2023-06-22T10:13:52;5.30;;;3.40;;
74291;SDS011;62687;55.738;37.516;2023-06-22T10:16:36;6.28;;;3.25;;
74291;SDS011;62687;55.738;37.516;2023-06-22T10:19:20;7.25;;;3.85;;
74291;SDS011;62687;55.738;37.516;2023-06-22T10:22:05;6.18;;;3.47;;
74291;SDS011;62687;55.738;37.516;2023-06-22T10:24:49;5.25;;;3.42;;
74291;SDS011;62687;55.738;37.516;2023-06-22T10:27:33;7.80;;;3.63;;
74291;SDS011;62687;55.738;37.516;2023-06-22T10:30:17;6.22;;;3.70;;
74291;SDS011;62687;55.738;37.516;2023-06-22T10:33:01;9.02;;;3.60;;
74291;SDS011;62687;55.738;37.516;2023-06-22T10:35:45;7.93;;;3.50;;
74291;SDS011;62687;55.738;37.516;2023-06-22T10:38:29;7.90;;;3.40;;
74291;SDS011;62687;55.738;37.516;2023-06-22T10:41:13;9.35;;;3.97;;
74291;SDS011;62687;55.738;37.516;2023-06-22T10:43:57;7.95;;;3.95;;
74291;SDS011;62687;55.738;37.516;2023-06-22T10:46:41;7.85;;;3.55;;
74291;SDS011;62687;55.738;37.516;2023-06-22T10:49:25;6.45;;;3.38;;
74291;SDS011;62687;55.738;37.516;2023-06-22T10:52:09;6.30;;;3.30;;
74291;SDS011;62687;55.738;37.516;2023-06-22T10:54:53;6.50;;;4.15;;
74291;SDS011;62687;55.738;37.516;2023-06-22T10:57:37;5.90;;;3.90;;
74291;SDS011;62687;55.738;37.516;2023-06-22T11:39:04;6.57;;;3.53;;
74291;SDS011;62687;55.738;37.516;2023-06-22T11:41:48;5.47;;;3.58;;
74291;SDS011;62687;55.738;37.516;2023-06-22T11:44:32;7.15;;;4.43;;
74291;SDS011;62687;55.738;37.516;2023-06-22T11:47:16;5.20;;;3.53;;
74291;SDS011;62687;55.738;37.516;2023-06-22T11:50:00;10.73;;;4.25;;
74291;SDS011;62687;55.738;37.516;2023-06-22T11:55:28;6.22;;;2.90;;
74291;SDS011;62687;55.738;37.516;2023-06-22T11:58:12;6.10;;;3.42;;
74291;SDS011;62687;55.738;37.516;2023-06-22T12:00:56;5.25;;;3.97;;
74291;SDS011;62687;55.738;37.516;2023-06-22T12:03:40;5.45;;;3.88;;
74291;SDS011;62687;55.738;37.516;2023-06-22T12:06:23;5.72;;;3.85;;
74291;SDS011;62687;55.738;37.516;2023-06-22T12:09:07;9.73;;;3.60;;
74291;SDS011;62687;55.738;37.516;2023-06-22T12:11:51;8.45;;;4.15;;
74291;SDS011;62687;55.738;37.516;2023-06-22T12:17:20;6.57;;;3.40;;
74291;SDS011;62687;55.738;37.516;2023-06-22T12:22:49;5.35;;;3.70;;
74291;SDS011;62687;55.738;37.516;2023-06-22T12:25:35;7.25;;;3.50;;
74291;SDS011;62687;55.738;37.516;2023-06-22T12:28:19;6.47;;;2.97;;
74291;SDS011;62687;55.738;37.516;2023-06-22T12:31:03;6.88;;;3.40;;
74291;SDS011;62687;55.738;37.516;2023-06-22T12:33:47;9.00;;;4.13;;
74291;SDS011;62687;55.738;37.516;2023-06-22T12:36:31;5.00;;;3.47;;
74291;SDS011;62687;55.738;37.516;2023-06-22T12:41:59;7.22;;;3.67;;
74291;SDS011;62687;55.738;37.516;2023-06-22T12:44:43;5.20;;;3.78;;
74291;SDS011;62687;55.738;37.516;2023-06-22T12:50:11;6.43;;;3.92;;
74291;SDS011;62687;55.738;37.516;2023-06-22T12:52:55;6.25;;;3.40;;
74291;SDS011;62687;55.738;37.516;2023-06-22T12:55:39;8.38;;;3.50;;
74291;SDS011;62687;55.738;37.516;2023-06-22T13:01:07;5.32;;;3.50;;
74291;SDS011;62687;55.738;37.516;2023-06-22T13:03:51;4.38;;;3.58;;
74291;SDS011;62687;55.738;37.516;2023-06-22T13:09:19;8.75;;;3.63;;
74291;SDS011;62687;55.738;37.516;2023-06-22T13:12:03;4.60;;;3.78;;
74291;SDS011;62687;55.738;37.516;2023-06-22T13:14:48;6.75;;;3.75;;
74291;SDS011;62687;55.738;37.516;2023-06-22T13:17:32;7.97;;;4.13;;
74291;SDS011;62687;55.738;37.516;2023-06-22T13:20:16;7.45;;;3.90;;
74291;SDS011;62687;55.738;37.516;2023-06-22T13:25:43;4.22;;;3.50;;
74291;SDS011;62687;55.738;37.516;2023-06-22T13:28:28;5.25;;;3.67;;
74291;SDS011;62687;55.738;37.516;2023-06-22T13:31:13;10.23;;;3.00;;
74291;SDS011;62687;55.738;37.516;2023-06-22T13:33:57;8.32;;;3.83;;
74291;SDS011;62687;55.738;37.516;2023-06-22T13:39:25;8.18;;;4.43;;
74291;SDS011;62687;55.738;37.516;2023-06-22T13:42:09;5.40;;;3.80;;
74291;SDS011;62687;55.738;37.516;2023-06-22T13:44:53;7.40;;;4.93;;
74291;SDS011;62687;55.738;37.516;2023-06-22T13:47:37;8.70;;;3.75;;
74291;SDS011;62687;55.738;37.516;2023-06-22T13:53:05;4.97;;;3.22;;
74291;SDS011;62687;55.738;37.516;2023-06-22T13:58:33;7.32;;;3.97;;
74291;SDS011;62687;55.738;37.516;2023-06-22T14:01:18;7.72;;;5.45;;
74291;SDS011;62687;55.738;37.516;2023-06-22T14:04:01;8.43;;;3.42;;
74291;SDS011;62687;55.738;37.516;2023-06-22T14:09:30;6.63;;;3.78;;
74291;SDS011;62687;55.738;37.516;2023-06-22T14:12:13;5.93;;;3.22;;
74291;SDS011;62687;55.738;37.516;2023-06-22T14:17:41;8.20;;;3.95;;
74291;SDS011;62687;55.738;37.516;2023-06-22T14:20:25;7.18;;;3.70;;
74291;SDS011;62687;55.738;37.516;2023-06-22T14:23:09;7.70;;;3.88;;
74291;SDS011;62687;55.738;37.516;2023-06-22T14:28:37;6.13;;;3.80;;
74291;SDS011;62687;55.738;37.516;2023-06-22T14:34:05;7.07;;;3.95;;
74291;SDS011;62687;55.738;37.516;2023-06-22T14:36:50;5.68;;;5.00;;
74291;SDS011;62687;55.738;37.516;2023-06-22T14:42:18;6.00;;;4.25;;
74291;SDS011;62687;55.738;37.516;2023-06-22T14:45:02;4.35;;;3.58;;
74291;SDS011;62687;55.738;37.516;2023-06-22T14:47:46;6.05;;;3.85;;
74291;SDS011;62687;55.738;37.516;2023-06-22T14:50:30;17.73;;;5.22;;
74291;SDS011;62687;55.738;37.516;2023-06-22T14:55:58;7.15;;;3.88;;
74291;SDS011;62687;55.738;37.516;2023-06-22T14:58:45;5.55;;;3.53;;
74291;SDS011;62687;55.738;37.516;2023-06-22T15:01:30;5.88;;;3.47;;
74291;SDS011;62687;55.738;37.516;2023-06-22T15:04:14;7.78;;;3.92;;
74291;SDS011;62687;55.738;37.516;2023-06-22T15:06:57;5.60;;;4.13;;
74291;SDS011;62687;55.738;37.516;2023-06-22T15:09:41;6.63;;;4.35;;
74291;SDS011;62687;55.738;37.516;2023-06-22T15:12:26;9.30;;;3.78;;
74291;SDS011;62687;55.738;37.516;2023-06-22T15:15:10;9.15;;;4.63;;
74291;SDS011;62687;55.738;37.516;2023-06-22T15:17:54;12.32;;;4.82;;
74291;SDS011;62687;55.738;37.516;2023-06-22T15:20:38;5.82;;;3.92;;
74291;SDS011;62687;55.738;37.516;2023-06-22T15:26:06;9.05;;;3.65;;
74291;SDS011;62687;55.738;37.516;2023-06-22T15:28:50;5.93;;;3.53;;
74291;SDS011;62687;55.738;37.516;2023-06-22T15:31:34;16.50;;;5.03;;
74291;SDS011;62687;55.738;37.516;2023-06-22T15:34:18;6.90;;;3.90;;
74291;SDS011;62687;55.738;37.516;2023-06-22T15:37:02;9.13;;;3.83;;
74291;SDS011;62687;55.738;37.516;2023-06-22T15:42:31;8.45;;;4.80;;
74291;SDS011;62687;55.738;37.516;2023-06-22T15:45:14;7.68;;;5.35;;
74291;SDS011;62687;55.738;37.516;2023-06-22T15:47:58;12.20;;;8.23;;
74291;SDS011;62687;55.738;37.516;2023-06-22T15:50:42;7.97;;;4.85;;
74291;SDS011;62687;55.738;37.516;2023-06-22T15:53:26;8.77;;;4.80;;
74291;SDS011;62687;55.738;37.516;2023-06-22T15:56:10;7.05;;;4.05;;
74291;SDS011;62687;55.738;37.516;2023-06-22T15:58:54;12.02;;;7.60;;
74291;SDS011;62687;55.738;37.516;2023-06-22T16:01:40;13.27;;;6.57;;
74291;SDS011;62687;55.738;37.516;2023-06-22T16:04:24;15.98;;;10.00;;
74291;SDS011;62687;55.738;37.516;2023-06-22T16:07:08;6.28;;;4.78;;
74291;SDS011;62687;55.738;37.516;2023-06-22T16:09:52;11.45;;;6.68;;
74291;SDS011;62687;55.738;37.516;2023-06-22T16:12:36;11.55;;;5.85;;
74291;SDS011;62687;55.738;37.516;2023-06-22T16:15:20;7.35;;;4.60;;
74291;SDS011;62687;55.738;37.516;2023-06-22T16:18:05;10.52;;;4.43;;
74291;SDS011;62687;55.738;37.516;2023-06-22T16:20:49;9.68;;;5.22;;
74291;SDS011;62687;55.738;37.516;2023-06-22T16:23:33;11.65;;;5.70;;
74291;SDS011;62687;55.738;37.516;2023-06-22T16:26:17;22.10;;;4.90;;
74291;SDS011;62687;55.738;37.516;2023-06-22T16:29:01;20.40;;;4.82;;
74291;SDS011;62687;55.738;37.516;2023-06-22T16:31:46;13.90;;;4.40;;
74291;SDS011;62687;55.738;37.516;2023-06-22T16:34:30;12.95;;;4.50;;
74291;SDS011;62687;55.738;37.516;2023-06-22T16:37:15;11.48;;;5.00;;
74291;SDS011;62687;55.738;37.516;2023-06-22T16:39:59;16.38;;;4.75;;
74291;SDS011;62687;55.738;37.516;2023-06-22T16:42:45;8.88;;;5.03;;
74291;SDS011;62687;55.738;37.516;2023-06-22T16:45:29;15.63;;;5.07;;
74291;SDS011;62687;55.738;37.516;2023-06-22T16:48:16;10.95;;;4.55;;
74291;SDS011;62687;55.738;37.516;2023-06-22T16:51:00;14.98;;;4.50;;
74291;SDS011;62687;55.738;37.516;2023-06-22T16:56:28;15.75;;;4.80;;
74291;SDS011;62687;55.738;37.516;2023-06-22T17:01:57;12.95;;;4.00;;
74291;SDS011;62687;55.738;37.516;2023-06-22T17:07:26;14.23;;;4.75;;
74291;SDS011;62687;55.738;37.516;2023-06-22T17:10:11;15.15;;;4.85;;
74291;SDS011;62687;55.738;37.516;2023-06-22T17:15:40;13.30;;;3.90;;
74291;SDS011;62687;55.738;37.516;2023-06-22T17:18:26;12.85;;;4.90;;
74291;SDS011;62687;55.738;37.516;2023-06-22T17:21:12;11.40;;;5.00;;
74291;SDS011;62687;55.738;37.516;2023-06-22T17:23:56;11.93;;;4.15;;
74291;SDS011;62687;55.738;37.516;2023-06-22T17:26:47;16.27;;;4.45;;
74291;SDS011;62687;55.738;37.516;2023-06-22T17:29:31;12.68;;;4.10;;
74291;SDS011;62687;55.738;37.516;2023-06-22T17:32:16;23.58;;;4.50;;
74291;SDS011;62687;55.738;37.516;2023-06-22T17:35:03;8.68;;;3.88;;
74291;SDS011;62687;55.738;37.516;2023-06-22T17:40:40;7.75;;;3.92;;
74291;SDS011;62687;55.738;37.516;2023-06-22T17:43:24;13.45;;;4.05;;
74291;SDS011;62687;55.738;37.516;2023-06-22T17:46:08;10.55;;;3.55;;
74291;SDS011;62687;55.738;37.516;2023-06-22T17:48:52;14.65;;;3.95;;
74291;SDS011;62687;55.738;37.516;2023-06-22T17:51:38;5.53;;;3.55;;
74291;SDS011;62687;55.738;37.516;2023-06-22T17:54:23;8.35;;;3.40;;
74291;SDS011;62687;55.738;37.516;2023-06-22T17:57:16;7.40;;;3.38;;
74291;SDS011;62687;55.738;37.516;2023-06-22T18:00:01;12.18;;;3.95;;
74291;SDS011;62687;55.738;37.516;2023-06-22T18:02:45;10.32;;;3.38;;
74291;SDS011;62687;55.738;37.516;2023-06-22T18:08:13;9.90;;;3.50;;
74291;SDS011;62687;55.738;37.516;2023-06-22T18:10:59;11.93;;;3.95;;
74291;SDS011;62687;55.738;37.516;2023-06-22T18:13:46;11.52;;;3.60;;
74291;SDS011;62687;55.738;37.516;2023-06-22T18:16:32;13.05;;;3.30;;
74291;SDS011;62687;55.738;37.516;2023-06-22T18:19:17;7.65;;;3.40;;
74291;SDS011;62687;55.738;37.516;2023-06-22T18:22:02;9.77;;;3.75;;
74291;SDS011;62687;55.738;37.516;2023-06-22T18:24:47;9.68;;;3.80;;
74291;SDS011;62687;55.738;37.516;2023-06-22T18:27:32;8.88;;;4.18;;
74291;SDS011;62687;55.738;37.516;2023-06-22T18:30:19;7.35;;;3.88;;